sensor_id;sensor_type;location;lat;lon;timestamp;temperature;humidity
22813;DHT22;11573;51.334;3.244;2022-11-22T00:00:30;7.00;99.90
22813;DHT22;11573;51.334;3.244;2022-11-22T00:02:57;7.00;99.90
22813;DHT22;11573;51.334;3.244;2022-11-22T00:05:27;7.00;99.90
22813;DHT22;11573;51.334;3.244;2022-11-22T00:07:54;7.00;99.90
22813;DHT22;11573;51.334;3.244;2022-11-22T00:10:21;7.00;99.90
22813;DHT22;11573;51.334;3.244;2022-11-22T00:12:48;7.10;99.90
22813;DHT22;11573;51.334;3.244;2022-11-22T00:15:15;7.10;99.90
22813;DHT22;11573;51.334;3.244;2022-11-22T00:17:42;7.10;99.90
22813;DHT22;11573;51.334;3.244;2022-11-22T00:20:09;7.00;99.90
22813;DHT22;11573;51.334;3.244;2022-11-22T00:22:39;7.00;99.90
22813;DHT22;11573;51.334;3.244;2022-11-22T00:25:11;7.00;99.90
22813;DHT22;11573;51.334;3.244;2022-11-22T00:27:38;7.00;99.90
22813;DHT22;11573;51.334;3.244;2022-11-22T00:30:05;7.00;99.90
22813;DHT22;11573;51.334;3.244;2022-11-22T00:32:33;7.00;99.90
22813;DHT22;11573;51.334;3.244;2022-11-22T00:35:02;7.10;99.90
22813;DHT22;11573;51.334;3.244;2022-11-22T00:37:29;7.10;99.90
22813;DHT22;11573;51.334;3.244;2022-11-22T00:39:55;7.00;99.90
22813;DHT22;11573;51.334;3.244;2022-11-22T00:42:22;7.00;99.90
22813;DHT22;11573;51.334;3.244;2022-11-22T00:44:49;7.00;99.90
22813;DHT22;11573;51.334;3.244;2022-11-22T00:47:16;7.00;99.90
22813;DHT22;11573;51.334;3.244;2022-11-22T00:49:43;7.00;99.90
22813;DHT22;11573;51.334;3.244;2022-11-22T00:52:10;7.10;99.90
22813;DHT22;11573;51.334;3.244;2022-11-22T00:54:37;7.10;99.90
22813;DHT22;11573;51.334;3.244;2022-11-22T00:57:04;7.00;99.90
22813;DHT22;11573;51.334;3.244;2022-11-22T00:59:31;7.00;99.90
22813;DHT22;11573;51.334;3.244;2022-11-22T01:01:58;6.90;99.90
22813;DHT22;11573;51.334;3.244;2022-11-22T01:04:25;6.90;99.90
22813;DHT22;11573;51.334;3.244;2022-11-22T01:06:51;6.80;99.90
22813;DHT22;11573;51.334;3.244;2022-11-22T01:09:21;6.80;99.90
22813;DHT22;11573;51.334;3.244;2022-11-22T01:11:48;6.80;99.90
22813;DHT22;11573;51.334;3.244;2022-11-22T01:14:16;6.80;99.90
22813;DHT22;11573;51.334;3.244;2022-11-22T01:16:44;6.80;99.90
22813;DHT22;11573;51.334;3.244;2022-11-22T01:19:11;6.80;99.90
22813;DHT22;11573;51.334;3.244;2022-11-22T01:21:38;6.80;99.90
22813;DHT22;11573;51.334;3.244;2022-11-22T01:24:05;6.70;99.90
22813;DHT22;11573;51.334;3.244;2022-11-22T01:26:33;6.70;99.90
22813;DHT22;11573;51.334;3.244;2022-11-22T01:29:00;6.70;99.90
22813;DHT22;11573;51.334;3.244;2022-11-22T01:31:27;6.70;99.90
22813;DHT22;11573;51.334;3.244;2022-11-22T01:33:56;6.70;99.90
22813;DHT22;11573;51.334;3.244;2022-11-22T01:36:25;6.60;99.90
22813;DHT22;11573;51.334;3.244;2022-11-22T01:38:52;6.60;99.90
22813;DHT22;11573;51.334;3.244;2022-11-22T01:41:19;6.50;99.90
22813;DHT22;11573;51.334;3.244;2022-11-22T01:43:46;6.50;99.90
22813;DHT22;11573;51.334;3.244;2022-11-22T01:46:31;6.50;99.90
22813;DHT22;11573;51.334;3.244;2022-11-22T01:49:13;6.50;99.90
22813;DHT22;11573;51.334;3.244;2022-11-22T01:51:43;6.50;99.90
22813;DHT22;11573;51.334;3.244;2022-11-22T01:54:18;6.40;99.90
22813;DHT22;11573;51.334;3.244;2022-11-22T01:56:51;6.50;99.90
22813;DHT22;11573;51.334;3.244;2022-11-22T01:59:23;6.40;99.90
22813;DHT22;11573;51.334;3.244;2022-11-22T02:01:51;6.40;99.90
22813;DHT22;11573;51.334;3.244;2022-11-22T02:04:19;6.40;99.90
22813;DHT22;11573;51.334;3.244;2022-11-22T02:07:10;6.30;99.90
22813;DHT22;11573;51.334;3.244;2022-11-22T02:09:39;6.30;99.90
22813;DHT22;11573;51.334;3.244;2022-11-22T02:12:09;6.30;99.90
22813;DHT22;11573;51.334;3.244;2022-11-22T02:14:39;6.30;99.90
22813;DHT22;11573;51.334;3.244;2022-11-22T02:17:06;6.30;99.90
22813;DHT22;11573;51.334;3.244;2022-11-22T02:19:45;6.30;99.90
22813;DHT22;11573;51.334;3.244;2022-11-22T02:22:32;6.40;99.90
22813;DHT22;11573;51.334;3.244;2022-11-22T02:27:33;6.40;99.90
22813;DHT22;11573;51.334;3.244;2022-11-22T02:30:00;6.30;99.90
22813;DHT22;11573;51.334;3.244;2022-11-22T02:32:27;6.40;99.90
22813;DHT22;11573;51.334;3.244;2022-11-22T02:34:54;6.40;99.90
22813;DHT22;11573;51.334;3.244;2022-11-22T02:37:28;6.30;99.90
22813;DHT22;11573;51.334;3.244;2022-11-22T02:40:05;6.40;99.90
22813;DHT22;11573;51.334;3.244;2022-11-22T02:42:34;6.30;99.90
22813;DHT22;11573;51.334;3.244;2022-11-22T02:45:01;6.30;99.90
22813;DHT22;11573;51.334;3.244;2022-11-22T02:47:28;6.30;99.90
22813;DHT22;11573;51.334;3.244;2022-11-22T02:49:55;6.20;99.90
22813;DHT22;11573;51.334;3.244;2022-11-22T02:52:22;6.20;99.90
22813;DHT22;11573;51.334;3.244;2022-11-22T02:54:48;6.20;99.90
22813;DHT22;11573;51.334;3.244;2022-11-22T02:57:15;6.20;99.90
22813;DHT22;11573;51.334;3.244;2022-11-22T02:59:42;6.20;99.90
22813;DHT22;11573;51.334;3.244;2022-11-22T03:02:09;6.20;99.90
22813;DHT22;11573;51.334;3.244;2022-11-22T03:04:36;6.20;99.90
22813;DHT22;11573;51.334;3.244;2022-11-22T03:07:03;6.20;99.90
22813;DHT22;11573;51.334;3.244;2022-11-22T03:09:30;6.20;99.90
22813;DHT22;11573;51.334;3.244;2022-11-22T03:11:58;6.20;99.90
22813;DHT22;11573;51.334;3.244;2022-11-22T03:14:25;6.20;99.90
22813;DHT22;11573;51.334;3.244;2022-11-22T03:16:52;6.20;99.90
22813;DHT22;11573;51.334;3.244;2022-11-22T03:19:19;6.20;99.90
22813;DHT22;11573;51.334;3.244;2022-11-22T03:21:46;6.10;99.90
22813;DHT22;11573;51.334;3.244;2022-11-22T03:24:13;6.10;99.90
22813;DHT22;11573;51.334;3.244;2022-11-22T03:26:40;6.10;99.90
22813;DHT22;11573;51.334;3.244;2022-11-22T03:29:11;6.10;99.90
22813;DHT22;11573;51.334;3.244;2022-11-22T03:31:38;6.10;99.90
22813;DHT22;11573;51.334;3.244;2022-11-22T03:34:05;6.10;99.90
22813;DHT22;11573;51.334;3.244;2022-11-22T03:36:32;6.20;99.90
22813;DHT22;11573;51.334;3.244;2022-11-22T03:38:59;6.20;99.90
22813;DHT22;11573;51.334;3.244;2022-11-22T03:41:25;6.20;99.90
22813;DHT22;11573;51.334;3.244;2022-11-22T03:43:52;6.20;99.90
22813;DHT22;11573;51.334;3.244;2022-11-22T03:46:19;6.20;99.90
22813;DHT22;11573;51.334;3.244;2022-11-22T03:48:46;6.20;99.90
22813;DHT22;11573;51.334;3.244;2022-11-22T03:51:13;6.20;99.90
22813;DHT22;11573;51.334;3.244;2022-11-22T03:53:40;6.20;99.90
22813;DHT22;11573;51.334;3.244;2022-11-22T03:56:07;6.20;99.90
22813;DHT22;11573;51.334;3.244;2022-11-22T03:58:34;6.30;99.90
22813;DHT22;11573;51.334;3.244;2022-11-22T04:01:01;6.30;99.90
22813;DHT22;11573;51.334;3.244;2022-11-22T04:03:29;6.30;99.90
22813;DHT22;11573;51.334;3.244;2022-11-22T04:05:56;6.30;99.90
22813;DHT22;11573;51.334;3.244;2022-11-22T04:08:23;6.30;99.90
22813;DHT22;11573;51.334;3.244;2022-11-22T04:10:50;6.30;99.90
22813;DHT22;11573;51.334;3.244;2022-11-22T04:13:18;6.30;99.90
22813;DHT22;11573;51.334;3.244;2022-11-22T04:15:45;6.30;99.90
22813;DHT22;11573;51.334;3.244;2022-11-22T04:18:13;6.20;99.90
22813;DHT22;11573;51.334;3.244;2022-11-22T04:20:40;6.20;99.90
22813;DHT22;11573;51.334;3.244;2022-11-22T04:23:26;6.10;99.90
22813;DHT22;11573;51.334;3.244;2022-11-22T04:25:59;6.10;99.90
22813;DHT22;11573;51.334;3.244;2022-11-22T04:28:26;6.00;99.90
22813;DHT22;11573;51.334;3.244;2022-11-22T04:31:13;6.00;99.90
22813;DHT22;11573;51.334;3.244;2022-11-22T04:33:58;6.00;99.90
22813;DHT22;11573;51.334;3.244;2022-11-22T04:36:25;6.00;99.90
22813;DHT22;11573;51.334;3.244;2022-11-22T04:38:52;6.00;99.90
22813;DHT22;11573;51.334;3.244;2022-11-22T04:41:19;6.00;99.90
22813;DHT22;11573;51.334;3.244;2022-11-22T04:43:46;6.00;99.90
22813;DHT22;11573;51.334;3.244;2022-11-22T04:46:32;6.00;99.90
22813;DHT22;11573;51.334;3.244;2022-11-22T04:48:58;6.00;99.90
22813;DHT22;11573;51.334;3.244;2022-11-22T04:51:25;5.90;99.90
22813;DHT22;11573;51.334;3.244;2022-11-22T04:54:11;5.90;99.90
22813;DHT22;11573;51.334;3.244;2022-11-22T04:56:38;6.00;99.90
22813;DHT22;11573;51.334;3.244;2022-11-22T04:59:04;6.00;99.90
22813;DHT22;11573;51.334;3.244;2022-11-22T05:01:31;6.00;99.90
22813;DHT22;11573;51.334;3.244;2022-11-22T05:03:58;6.00;99.90
22813;DHT22;11573;51.334;3.244;2022-11-22T05:06:25;6.00;99.90
22813;DHT22;11573;51.334;3.244;2022-11-22T05:08:52;6.00;99.90
22813;DHT22;11573;51.334;3.244;2022-11-22T05:11:19;5.90;99.90
22813;DHT22;11573;51.334;3.244;2022-11-22T05:13:46;5.90;99.90
22813;DHT22;11573;51.334;3.244;2022-11-22T05:16:14;5.80;99.90
22813;DHT22;11573;51.334;3.244;2022-11-22T05:18:41;5.70;99.90
22813;DHT22;11573;51.334;3.244;2022-11-22T05:21:12;5.70;99.90
22813;DHT22;11573;51.334;3.244;2022-11-22T05:23:40;5.70;99.90
22813;DHT22;11573;51.334;3.244;2022-11-22T05:26:32;5.70;99.90
22813;DHT22;11573;51.334;3.244;2022-11-22T05:29:06;5.70;99.90
22813;DHT22;11573;51.334;3.244;2022-11-22T05:31:35;5.70;99.90
22813;DHT22;11573;51.334;3.244;2022-11-22T05:34:03;5.70;99.90
22813;DHT22;11573;51.334;3.244;2022-11-22T05:36:32;5.60;99.90
22813;DHT22;11573;51.334;3.244;2022-11-22T05:38:59;5.60;99.90
22813;DHT22;11573;51.334;3.244;2022-11-22T05:41:27;5.70;99.90
22813;DHT22;11573;51.334;3.244;2022-11-22T05:43:54;5.70;99.90
22813;DHT22;11573;51.334;3.244;2022-11-22T05:46:25;5.80;99.90
22813;DHT22;11573;51.334;3.244;2022-11-22T05:48:54;5.80;99.90
22813;DHT22;11573;51.334;3.244;2022-11-22T05:51:24;5.80;99.90
22813;DHT22;11573;51.334;3.244;2022-11-22T05:53:59;5.80;99.90
22813;DHT22;11573;51.334;3.244;2022-11-22T05:56:26;5.80;99.90
22813;DHT22;11573;51.334;3.244;2022-11-22T05:58:53;5.80;99.90
22813;DHT22;11573;51.334;3.244;2022-11-22T06:01:22;5.80;99.90
22813;DHT22;11573;51.334;3.244;2022-11-22T06:03:49;5.80;99.90
22813;DHT22;11573;51.334;3.244;2022-11-22T06:06:17;5.70;99.90
22813;DHT22;11573;51.334;3.244;2022-11-22T06:08:44;5.70;99.90
22813;DHT22;11573;51.334;3.244;2022-11-22T06:11:17;5.70;99.90
22813;DHT22;11573;51.334;3.244;2022-11-22T06:13:45;5.60;99.90
22813;DHT22;11573;51.334;3.244;2022-11-22T06:16:13;5.50;99.90
22813;DHT22;11573;51.334;3.244;2022-11-22T06:18:40;5.40;99.90
22813;DHT22;11573;51.334;3.244;2022-11-22T06:21:11;5.40;99.90
22813;DHT22;11573;51.334;3.244;2022-11-22T06:23:38;5.30;99.90
22813;DHT22;11573;51.334;3.244;2022-11-22T06:26:08;5.30;99.90
22813;DHT22;11573;51.334;3.244;2022-11-22T06:28:36;5.30;99.90
22813;DHT22;11573;51.334;3.244;2022-11-22T06:31:07;5.30;99.90
22813;DHT22;11573;51.334;3.244;2022-11-22T06:33:34;5.30;99.90
22813;DHT22;11573;51.334;3.244;2022-11-22T06:38:29;5.40;99.90
22813;DHT22;11573;51.334;3.244;2022-11-22T06:41:05;5.40;99.90
22813;DHT22;11573;51.334;3.244;2022-11-22T06:43:33;5.40;99.90
22813;DHT22;11573;51.334;3.244;2022-11-22T06:46:01;5.40;99.90
22813;DHT22;11573;51.334;3.244;2022-11-22T06:48:29;5.50;99.90
22813;DHT22;11573;51.334;3.244;2022-11-22T06:51:04;5.50;99.90
22813;DHT22;11573;51.334;3.244;2022-11-22T06:53:33;5.50;99.90
22813;DHT22;11573;51.334;3.244;2022-11-22T06:56:35;5.50;99.90
22813;DHT22;11573;51.334;3.244;2022-11-22T06:59:04;5.40;99.90
22813;DHT22;11573;51.334;3.244;2022-11-22T07:01:32;5.40;99.90
22813;DHT22;11573;51.334;3.244;2022-11-22T07:04:00;5.40;99.90
22813;DHT22;11573;51.334;3.244;2022-11-22T07:06:30;5.40;99.90
22813;DHT22;11573;51.334;3.244;2022-11-22T07:08:58;5.40;99.90
22813;DHT22;11573;51.334;3.244;2022-11-22T07:11:27;5.40;99.90
22813;DHT22;11573;51.334;3.244;2022-11-22T07:13:55;5.50;99.90
22813;DHT22;11573;51.334;3.244;2022-11-22T07:16:31;5.50;99.90
22813;DHT22;11573;51.334;3.244;2022-11-22T07:18:58;5.50;99.90
22813;DHT22;11573;51.334;3.244;2022-11-22T07:21:26;5.50;99.90
22813;DHT22;11573;51.334;3.244;2022-11-22T07:23:54;5.50;99.90
22813;DHT22;11573;51.334;3.244;2022-11-22T07:26:23;5.50;99.90
22813;DHT22;11573;51.334;3.244;2022-11-22T07:28:51;5.50;99.90
22813;DHT22;11573;51.334;3.244;2022-11-22T07:31:18;5.50;99.90
22813;DHT22;11573;51.334;3.244;2022-11-22T07:33:45;5.50;99.90
22813;DHT22;11573;51.334;3.244;2022-11-22T07:36:15;5.50;99.90
22813;DHT22;11573;51.334;3.244;2022-11-22T07:38:43;5.50;99.90
22813;DHT22;11573;51.334;3.244;2022-11-22T07:41:10;5.50;99.90
22813;DHT22;11573;51.334;3.244;2022-11-22T07:43:37;5.50;99.90
22813;DHT22;11573;51.334;3.244;2022-11-22T07:46:06;5.50;99.90
22813;DHT22;11573;51.334;3.244;2022-11-22T07:48:34;5.50;99.90
22813;DHT22;11573;51.334;3.244;2022-11-22T07:51:05;5.50;99.90
22813;DHT22;11573;51.334;3.244;2022-11-22T07:53:33;5.50;99.90
22813;DHT22;11573;51.334;3.244;2022-11-22T07:56:04;5.60;99.90
22813;DHT22;11573;51.334;3.244;2022-11-22T07:58:33;5.60;99.90
22813;DHT22;11573;51.334;3.244;2022-11-22T08:01:07;5.70;99.90
22813;DHT22;11573;51.334;3.244;2022-11-22T08:03:35;5.80;99.90
22813;DHT22;11573;51.334;3.244;2022-11-22T08:06:04;5.80;99.90
22813;DHT22;11573;51.334;3.244;2022-11-22T08:08:32;5.90;99.90
22813;DHT22;11573;51.334;3.244;2022-11-22T08:10:59;6.00;99.90
22813;DHT22;11573;51.334;3.244;2022-11-22T08:13:26;6.10;99.90
22813;DHT22;11573;51.334;3.244;2022-11-22T08:15:53;6.10;99.90
22813;DHT22;11573;51.334;3.244;2022-11-22T08:18:24;6.20;99.90
22813;DHT22;11573;51.334;3.244;2022-11-22T08:20:50;6.20;99.90
22813;DHT22;11573;51.334;3.244;2022-11-22T08:23:17;6.30;99.90
22813;DHT22;11573;51.334;3.244;2022-11-22T08:25:44;6.30;99.90
22813;DHT22;11573;51.334;3.244;2022-11-22T08:28:11;6.40;99.90
22813;DHT22;11573;51.334;3.244;2022-11-22T08:30:38;6.50;99.90
22813;DHT22;11573;51.334;3.244;2022-11-22T08:33:05;6.60;99.90
22813;DHT22;11573;51.334;3.244;2022-11-22T08:35:32;6.70;99.90
22813;DHT22;11573;51.334;3.244;2022-11-22T08:37:59;6.80;99.90
22813;DHT22;11573;51.334;3.244;2022-11-22T08:40:26;6.80;99.90
22813;DHT22;11573;51.334;3.244;2022-11-22T08:42:53;6.90;99.90
22813;DHT22;11573;51.334;3.244;2022-11-22T08:45:21;6.90;99.90
22813;DHT22;11573;51.334;3.244;2022-11-22T08:47:48;6.90;99.90
22813;DHT22;11573;51.334;3.244;2022-11-22T08:50:16;6.90;99.90
22813;DHT22;11573;51.334;3.244;2022-11-22T08:52:43;7.00;99.90
22813;DHT22;11573;51.334;3.244;2022-11-22T08:55:10;7.00;99.90
22813;DHT22;11573;51.334;3.244;2022-11-22T08:57:37;7.00;99.90
22813;DHT22;11573;51.334;3.244;2022-11-22T09:00:05;7.00;99.90
22813;DHT22;11573;51.334;3.244;2022-11-22T09:02:32;7.00;99.90
22813;DHT22;11573;51.334;3.244;2022-11-22T09:04:59;7.10;99.90
22813;DHT22;11573;51.334;3.244;2022-11-22T09:07:27;7.10;99.90
22813;DHT22;11573;51.334;3.244;2022-11-22T09:10:14;7.20;99.90
22813;DHT22;11573;51.334;3.244;2022-11-22T09:12:45;7.20;99.90
22813;DHT22;11573;51.334;3.244;2022-11-22T09:15:12;7.20;99.90
22813;DHT22;11573;51.334;3.244;2022-11-22T09:17:39;7.10;99.90
22813;DHT22;11573;51.334;3.244;2022-11-22T09:20:07;7.20;99.90
22813;DHT22;11573;51.334;3.244;2022-11-22T09:22:34;7.20;99.90
22813;DHT22;11573;51.334;3.244;2022-11-22T09:25:01;7.20;99.90
22813;DHT22;11573;51.334;3.244;2022-11-22T09:27:28;7.20;99.90
22813;DHT22;11573;51.334;3.244;2022-11-22T09:29:55;7.30;99.90
22813;DHT22;11573;51.334;3.244;2022-11-22T09:32:22;7.30;99.90
22813;DHT22;11573;51.334;3.244;2022-11-22T09:34:49;7.40;99.90
22813;DHT22;11573;51.334;3.244;2022-11-22T09:37:16;7.50;99.90
22813;DHT22;11573;51.334;3.244;2022-11-22T09:39:45;7.50;99.90
22813;DHT22;11573;51.334;3.244;2022-11-22T09:42:54;7.60;99.90
22813;DHT22;11573;51.334;3.244;2022-11-22T09:45:30;7.60;99.90
22813;DHT22;11573;51.334;3.244;2022-11-22T09:51:16;7.70;99.90
22813;DHT22;11573;51.334;3.244;2022-11-22T09:54:14;7.80;99.90
22813;DHT22;11573;51.334;3.244;2022-11-22T09:56:44;7.80;99.90
22813;DHT22;11573;51.334;3.244;2022-11-22T09:59:20;7.90;99.90
22813;DHT22;11573;51.334;3.244;2022-11-22T10:02:00;8.00;99.90
22813;DHT22;11573;51.334;3.244;2022-11-22T10:04:48;8.10;99.90
22813;DHT22;11573;51.334;3.244;2022-11-22T10:07:22;8.10;99.90
22813;DHT22;11573;51.334;3.244;2022-11-22T10:10:14;8.20;99.90
22813;DHT22;11573;51.334;3.244;2022-11-22T10:12:51;8.20;99.90
22813;DHT22;11573;51.334;3.244;2022-11-22T10:15:43;8.20;99.90
22813;DHT22;11573;51.334;3.244;2022-11-22T10:18:33;8.30;99.90
22813;DHT22;11573;51.334;3.244;2022-11-22T10:21:02;8.30;99.90
22813;DHT22;11573;51.334;3.244;2022-11-22T10:23:29;8.20;99.90
22813;DHT22;11573;51.334;3.244;2022-11-22T10:26:02;8.20;99.90
22813;DHT22;11573;51.334;3.244;2022-11-22T10:31:25;8.10;99.90
22813;DHT22;11573;51.334;3.244;2022-11-22T10:36:59;8.00;99.90
22813;DHT22;11573;51.334;3.244;2022-11-22T10:47:56;8.30;99.90
22813;DHT22;11573;51.334;3.244;2022-11-22T10:54:27;8.40;99.90
22813;DHT22;11573;51.334;3.244;2022-11-22T10:59:49;8.60;99.90
22813;DHT22;11573;51.334;3.244;2022-11-22T11:02:38;8.60;99.90
22813;DHT22;11573;51.334;3.244;2022-11-22T11:05:12;8.70;99.90
22813;DHT22;11573;51.334;3.244;2022-11-22T11:07:45;8.80;99.90
22813;DHT22;11573;51.334;3.244;2022-11-22T11:10:23;8.90;99.90
22813;DHT22;11573;51.334;3.244;2022-11-22T11:13:13;8.90;99.90
22813;DHT22;11573;51.334;3.244;2022-11-22T11:15:47;9.10;99.90
22813;DHT22;11573;51.334;3.244;2022-11-22T11:18:28;9.10;99.90
22813;DHT22;11573;51.334;3.244;2022-11-22T11:20:57;9.20;99.90
22813;DHT22;11573;51.334;3.244;2022-11-22T11:23:24;9.20;99.90
22813;DHT22;11573;51.334;3.244;2022-11-22T11:25:51;9.20;99.90
22813;DHT22;11573;51.334;3.244;2022-11-22T11:28:26;9.20;99.90
22813;DHT22;11573;51.334;3.244;2022-11-22T11:31:06;9.20;99.90
22813;DHT22;11573;51.334;3.244;2022-11-22T11:33:35;9.10;99.90
22813;DHT22;11573;51.334;3.244;2022-11-22T11:36:11;9.10;99.90
22813;DHT22;11573;51.334;3.244;2022-11-22T11:41:28;9.10;99.90
22813;DHT22;11573;51.334;3.244;2022-11-22T11:43:57;9.10;99.90
22813;DHT22;11573;51.334;3.244;2022-11-22T11:46:44;9.20;99.90
22813;DHT22;11573;51.334;3.244;2022-11-22T11:49:16;9.20;99.90
22813;DHT22;11573;51.334;3.244;2022-11-22T11:51:45;9.30;99.90
22813;DHT22;11573;51.334;3.244;2022-11-22T11:57:23;9.50;99.90
22813;DHT22;11573;51.334;3.244;2022-11-22T11:59:47;9.50;99.90
22813;DHT22;11573;51.334;3.244;2022-11-22T12:10:40;9.60;99.90
22813;DHT22;11573;51.334;3.244;2022-11-22T12:13:25;9.70;99.90
22813;DHT22;11573;51.334;3.244;2022-11-22T12:16:21;9.70;99.90
22813;DHT22;11573;51.334;3.244;2022-11-22T12:21:59;9.50;99.90
22813;DHT22;11573;51.334;3.244;2022-11-22T12:24:38;9.60;99.90
22813;DHT22;11573;51.334;3.244;2022-11-22T12:27:26;9.60;99.90
22813;DHT22;11573;51.334;3.244;2022-11-22T12:29:53;9.80;99.90
22813;DHT22;11573;51.334;3.244;2022-11-22T12:32:27;9.90;99.90
22813;DHT22;11573;51.334;3.244;2022-11-22T12:35:19;10.00;99.90
22813;DHT22;11573;51.334;3.244;2022-11-22T12:37:51;10.00;99.90
22813;DHT22;11573;51.334;3.244;2022-11-22T12:40:26;9.90;99.90
22813;DHT22;11573;51.334;3.244;2022-11-22T12:43:06;10.00;99.90
22813;DHT22;11573;51.334;3.244;2022-11-22T12:45:42;10.10;99.90
22813;DHT22;11573;51.334;3.244;2022-11-22T12:48:17;10.20;99.90
22813;DHT22;11573;51.334;3.244;2022-11-22T12:50:47;10.30;99.90
22813;DHT22;11573;51.334;3.244;2022-11-22T12:53:39;10.30;99.90
22813;DHT22;11573;51.334;3.244;2022-11-22T12:56:28;10.50;99.90
22813;DHT22;11573;51.334;3.244;2022-11-22T12:59:01;10.50;99.90
22813;DHT22;11573;51.334;3.244;2022-11-22T13:01:44;10.40;99.90
22813;DHT22;11573;51.334;3.244;2022-11-22T13:04:53;10.30;99.90
22813;DHT22;11573;51.334;3.244;2022-11-22T13:10:05;10.20;99.90
22813;DHT22;11573;51.334;3.244;2022-11-22T13:12:36;10.10;99.90
22813;DHT22;11573;51.334;3.244;2022-11-22T13:15:04;10.20;99.90
22813;DHT22;11573;51.334;3.244;2022-11-22T13:17:33;10.10;99.90
22813;DHT22;11573;51.334;3.244;2022-11-22T13:20:05;10.10;99.90
22813;DHT22;11573;51.334;3.244;2022-11-22T13:22:52;10.20;99.90
22813;DHT22;11573;51.334;3.244;2022-11-22T13:25:33;10.30;99.90
22813;DHT22;11573;51.334;3.244;2022-11-22T13:28:08;10.30;99.90
22813;DHT22;11573;51.334;3.244;2022-11-22T13:30:38;10.40;99.90
22813;DHT22;11573;51.334;3.244;2022-11-22T13:33:12;10.30;99.90
22813;DHT22;11573;51.334;3.244;2022-11-22T13:35:48;10.30;99.90
22813;DHT22;11573;51.334;3.244;2022-11-22T13:38:16;10.30;99.90
22813;DHT22;11573;51.334;3.244;2022-11-22T13:40:45;10.30;99.90
22813;DHT22;11573;51.334;3.244;2022-11-22T13:45:54;10.30;99.90
22813;DHT22;11573;51.334;3.244;2022-11-22T13:51:08;10.20;99.90
22813;DHT22;11573;51.334;3.244;2022-11-22T13:53:39;10.30;99.90
22813;DHT22;11573;51.334;3.244;2022-11-22T14:01:53;10.80;99.90
22813;DHT22;11573;51.334;3.244;2022-11-22T14:12:23;10.70;99.90
22813;DHT22;11573;51.334;3.244;2022-11-22T14:25:56;10.40;99.90
22813;DHT22;11573;51.334;3.244;2022-11-22T14:31:26;10.20;99.90
22813;DHT22;11573;51.334;3.244;2022-11-22T14:45:18;9.90;99.90
22813;DHT22;11573;51.334;3.244;2022-11-22T14:53:24;9.80;99.90
22813;DHT22;11573;51.334;3.244;2022-11-22T14:55:57;9.80;99.90
22813;DHT22;11573;51.334;3.244;2022-11-22T14:58:28;9.80;99.90
22813;DHT22;11573;51.334;3.244;2022-11-22T15:16:30;10.00;99.90
22813;DHT22;11573;51.334;3.244;2022-11-22T15:19:34;10.00;99.90
22813;DHT22;11573;51.334;3.244;2022-11-22T15:22:26;9.80;99.90
22813;DHT22;11573;51.334;3.244;2022-11-22T15:25:16;9.70;99.90
22813;DHT22;11573;51.334;3.244;2022-11-22T15:28:03;9.60;99.90
22813;DHT22;11573;51.334;3.244;2022-11-22T15:30:51;9.50;99.90
22813;DHT22;11573;51.334;3.244;2022-11-22T15:33:38;9.40;99.90
22813;DHT22;11573;51.334;3.244;2022-11-22T15:39:30;9.20;99.90
22813;DHT22;11573;51.334;3.244;2022-11-22T15:42:19;9.10;99.90
22813;DHT22;11573;51.334;3.244;2022-11-22T15:45:11;9.00;99.90
22813;DHT22;11573;51.334;3.244;2022-11-22T15:48:01;9.00;99.90
22813;DHT22;11573;51.334;3.244;2022-11-22T15:54:12;8.90;99.90
22813;DHT22;11573;51.334;3.244;2022-11-22T15:59:53;8.80;99.90
22813;DHT22;11573;51.334;3.244;2022-11-22T16:02:27;8.70;99.90
22813;DHT22;11573;51.334;3.244;2022-11-22T16:05:06;8.70;99.90
22813;DHT22;11573;51.334;3.244;2022-11-22T16:07:54;8.70;99.90
22813;DHT22;11573;51.334;3.244;2022-11-22T16:13:32;8.60;99.90
22813;DHT22;11573;51.334;3.244;2022-11-22T16:16:15;8.60;99.90
22813;DHT22;11573;51.334;3.244;2022-11-22T16:18:43;8.60;99.90
22813;DHT22;11573;51.334;3.244;2022-11-22T16:23:41;8.60;99.90
22813;DHT22;11573;51.334;3.244;2022-11-22T16:28:47;8.60;99.90
22813;DHT22;11573;51.334;3.244;2022-11-22T16:31:24;8.70;99.90
22813;DHT22;11573;51.334;3.244;2022-11-22T16:33:53;8.70;99.90
22813;DHT22;11573;51.334;3.244;2022-11-22T16:36:22;8.60;99.90
22813;DHT22;11573;51.334;3.244;2022-11-22T16:38:49;8.60;99.90
22813;DHT22;11573;51.334;3.244;2022-11-22T16:41:25;8.60;99.90
22813;DHT22;11573;51.334;3.244;2022-11-22T16:44:05;8.60;99.90
22813;DHT22;11573;51.334;3.244;2022-11-22T16:46:35;8.60;99.90
22813;DHT22;11573;51.334;3.244;2022-11-22T16:49:20;8.60;99.90
22813;DHT22;11573;51.334;3.244;2022-11-22T16:51:49;8.60;99.90
22813;DHT22;11573;51.334;3.244;2022-11-22T16:54:18;8.60;99.90
22813;DHT22;11573;51.334;3.244;2022-11-22T16:56:45;8.50;99.90
22813;DHT22;11573;51.334;3.244;2022-11-22T16:59:12;8.60;99.90
22813;DHT22;11573;51.334;3.244;2022-11-22T17:01:41;8.60;99.90
22813;DHT22;11573;51.334;3.244;2022-11-22T17:04:23;8.60;99.90
22813;DHT22;11573;51.334;3.244;2022-11-22T17:06:51;8.60;99.90
22813;DHT22;11573;51.334;3.244;2022-11-22T17:09:18;8.60;99.90
22813;DHT22;11573;51.334;3.244;2022-11-22T17:11:45;8.60;99.90
22813;DHT22;11573;51.334;3.244;2022-11-22T17:14:14;8.60;99.90
22813;DHT22;11573;51.334;3.244;2022-11-22T17:16:41;8.60;99.90
22813;DHT22;11573;51.334;3.244;2022-11-22T17:19:08;8.60;99.90
22813;DHT22;11573;51.334;3.244;2022-11-22T17:21:55;8.70;99.90
22813;DHT22;11573;51.334;3.244;2022-11-22T17:24:22;8.70;99.90
22813;DHT22;11573;51.334;3.244;2022-11-22T17:26:49;8.70;99.90
22813;DHT22;11573;51.334;3.244;2022-11-22T17:29:16;8.60;99.90
22813;DHT22;11573;51.334;3.244;2022-11-22T17:32:03;8.60;99.90
22813;DHT22;11573;51.334;3.244;2022-11-22T17:34:30;8.60;99.90
22813;DHT22;11573;51.334;3.244;2022-11-22T17:36:57;8.60;99.90
22813;DHT22;11573;51.334;3.244;2022-11-22T17:39:24;8.60;99.90
22813;DHT22;11573;51.334;3.244;2022-11-22T17:41:51;8.60;99.90
22813;DHT22;11573;51.334;3.244;2022-11-22T17:44:18;8.60;99.90
22813;DHT22;11573;51.334;3.244;2022-11-22T17:46:45;8.60;99.90
22813;DHT22;11573;51.334;3.244;2022-11-22T17:49:12;8.60;99.90
22813;DHT22;11573;51.334;3.244;2022-11-22T17:51:42;8.60;99.90
22813;DHT22;11573;51.334;3.244;2022-11-22T17:54:09;8.50;99.90
22813;DHT22;11573;51.334;3.244;2022-11-22T17:56:36;8.50;99.90
22813;DHT22;11573;51.334;3.244;2022-11-22T17:59:03;8.60;99.90
22813;DHT22;11573;51.334;3.244;2022-11-22T18:01:30;8.60;99.90
22813;DHT22;11573;51.334;3.244;2022-11-22T18:03:57;8.60;99.90
22813;DHT22;11573;51.334;3.244;2022-11-22T18:06:24;8.60;99.90
22813;DHT22;11573;51.334;3.244;2022-11-22T18:08:52;8.60;99.90
22813;DHT22;11573;51.334;3.244;2022-11-22T18:11:19;8.60;99.90
22813;DHT22;11573;51.334;3.244;2022-11-22T18:13:46;8.60;99.90
22813;DHT22;11573;51.334;3.244;2022-11-22T18:16:13;8.60;99.90
22813;DHT22;11573;51.334;3.244;2022-11-22T18:18:43;8.60;99.90
22813;DHT22;11573;51.334;3.244;2022-11-22T18:21:27;8.70;99.90
22813;DHT22;11573;51.334;3.244;2022-11-22T18:23:58;8.80;99.90